sensor_id;sensor_type;location;lat;lon;timestamp;pressure;altitude;pressure_sealevel;temperature;humidity
15880;BME280;61999;51.514;14.614;2023-02-23T00:01:55;99853.31;;;0.99;56.75
15880;BME280;61999;51.514;14.614;2023-02-23T00:04:24;99865.19;;;1.04;56.34
15880;BME280;61999;51.514;14.614;2023-02-23T00:06:53;99853.78;;;0.88;57.31
15880;BME280;61999;51.514;14.614;2023-02-23T00:09:21;99855.97;;;0.97;56.69
15880;BME280;61999;51.514;14.614;2023-02-23T00:11:52;99853.69;;;0.90;56.97
15880;BME280;61999;51.514;14.614;2023-02-23T00:14:26;99849.47;;;0.87;56.88
15880;BME280;61999;51.514;14.614;2023-02-23T00:16:56;99851.31;;;0.85;56.73
15880;BME280;61999;51.514;14.614;2023-02-23T00:19:25;99850.38;;;0.86;56.89
15880;BME280;61999;51.514;14.614;2023-02-23T00:21:53;99849.69;;;0.82;57.00
15880;BME280;61999;51.514;14.614;2023-02-23T00:24:24;99847.47;;;0.73;57.10
15880;BME280;61999;51.514;14.614;2023-02-23T00:26:53;99849.94;;;0.76;57.04
15880;BME280;61999;51.514;14.614;2023-02-23T00:29:24;99845.19;;;0.66;57.30
15880;BME280;61999;51.514;14.614;2023-02-23T00:31:52;99846.03;;;0.66;57.01
15880;BME280;61999;51.514;14.614;2023-02-23T00:34:21;99853.16;;;0.61;57.18
15880;BME280;61999;51.514;14.614;2023-02-23T00:36:51;99845.13;;;0.67;56.77
15880;BME280;61999;51.514;14.614;2023-02-23T00:39:22;99842.91;;;0.58;57.27
15880;BME280;61999;51.514;14.614;2023-02-23T00:41:53;99849.72;;;0.60;57.01
15880;BME280;61999;51.514;14.614;2023-02-23T00:44:24;99851.22;;;0.66;57.28
15880;BME280;61999;51.514;14.614;2023-02-23T00:46:52;99847.00;;;0.64;56.72
15880;BME280;61999;51.514;14.614;2023-02-23T00:49:21;99847.25;;;0.57;56.66
15880;BME280;61999;51.514;14.614;2023-02-23T00:51:49;99854.91;;;0.60;56.87
15880;BME280;61999;51.514;14.614;2023-02-23T00:54:20;99846.41;;;0.57;56.82
15880;BME280;61999;51.514;14.614;2023-02-23T00:56:49;99845.72;;;0.53;56.92
15880;BME280;61999;51.514;14.614;2023-02-23T00:59:18;99843.66;;;0.40;57.38
15880;BME280;61999;51.514;14.614;2023-02-23T01:01:48;99849.44;;;0.46;57.56
15880;BME280;61999;51.514;14.614;2023-02-23T01:04:16;99847.78;;;0.45;56.95
15880;BME280;61999;51.514;14.614;2023-02-23T01:06:44;99847.78;;;0.45;56.92
15880;BME280;61999;51.514;14.614;2023-02-23T01:09:15;99842.56;;;0.45;56.98
15880;BME280;61999;51.514;14.614;2023-02-23T01:11:54;99843.28;;;0.49;56.48
15880;BME280;61999;51.514;14.614;2023-02-23T01:14:23;99837.66;;;0.39;56.49
15880;BME280;61999;51.514;14.614;2023-02-23T01:16:53;99830.75;;;0.38;56.56
15880;BME280;61999;51.514;14.614;2023-02-23T01:19:22;99836.06;;;0.35;57.05
15880;BME280;61999;51.514;14.614;2023-02-23T01:21:50;99831.84;;;0.32;56.78
15880;BME280;61999;51.514;14.614;2023-02-23T01:24:18;99829.34;;;0.31;56.54
15880;BME280;61999;51.514;14.614;2023-02-23T01:26:46;99833.69;;;0.30;56.61
15880;BME280;61999;51.514;14.614;2023-02-23T01:29:16;99835.56;;;0.25;57.01
15880;BME280;61999;51.514;14.614;2023-02-23T01:31:47;99827.84;;;0.24;56.97
15880;BME280;61999;51.514;14.614;2023-02-23T01:34:19;99822.56;;;0.27;56.59
15880;BME280;61999;51.514;14.614;2023-02-23T01:36:48;99826.66;;;0.10;57.52
15880;BME280;61999;51.514;14.614;2023-02-23T01:39:18;99823.81;;;0.17;56.88
15880;BME280;61999;51.514;14.614;2023-02-23T01:41:47;99819.66;;;0.12;56.64
15880;BME280;61999;51.514;14.614;2023-02-23T01:47:47;99813.16;;;0.02;57.32
15880;BME280;61999;51.514;14.614;2023-02-23T01:50:18;99811.69;;;-0.05;57.67
15880;BME280;61999;51.514;14.614;2023-02-23T01:52:50;99806.28;;;0.01;57.30
15880;BME280;61999;51.514;14.614;2023-02-23T01:55:21;99805.38;;;0.02;56.99
15880;BME280;61999;51.514;14.614;2023-02-23T01:57:56;99804.75;;;-0.04;57.54
15880;BME280;61999;51.514;14.614;2023-02-23T02:00:26;99801.34;;;-0.05;57.24
15880;BME280;61999;51.514;14.614;2023-02-23T02:03:00;99795.59;;;-0.13;57.49
15880;BME280;61999;51.514;14.614;2023-02-23T02:05:36;99791.34;;;-0.14;57.14
15880;BME280;61999;51.514;14.614;2023-02-23T02:08:07;99789.53;;;-0.12;57.37
15880;BME280;61999;51.514;14.614;2023-02-23T02:10:37;99789.41;;;-0.09;57.36
15880;BME280;61999;51.514;14.614;2023-02-23T02:13:18;99787.06;;;-0.15;57.48
15880;BME280;61999;51.514;14.614;2023-02-23T02:16:06;99786.16;;;-0.14;57.86
15880;BME280;61999;51.514;14.614;2023-02-23T02:18:55;99783.72;;;-0.19;57.50
15880;BME280;61999;51.514;14.614;2023-02-23T02:25:35;99779.44;;;-0.18;57.93
15880;BME280;61999;51.514;14.614;2023-02-23T02:32:06;99773.38;;;-0.19;57.62
15880;BME280;61999;51.514;14.614;2023-02-23T02:35:14;99774.03;;;-0.14;57.67
15880;BME280;61999;51.514;14.614;2023-02-23T02:38:04;99771.69;;;-0.20;57.15
15880;BME280;61999;51.514;14.614;2023-02-23T02:40:43;99773.19;;;-0.14;57.44
15880;BME280;61999;51.514;14.614;2023-02-23T02:43:31;99775.44;;;-0.27;57.19
15880;BME280;61999;51.514;14.614;2023-02-23T02:46:10;99769.19;;;-0.21;56.91
15880;BME280;61999;51.514;14.614;2023-02-23T02:48:48;99770.97;;;-0.23;57.15
15880;BME280;61999;51.514;14.614;2023-02-23T02:51:24;99772.66;;;-0.22;57.59
15880;BME280;61999;51.514;14.614;2023-02-23T02:54:01;99771.09;;;-0.26;57.36
15880;BME280;61999;51.514;14.614;2023-02-23T02:56:37;99771.22;;;-0.30;57.29
15880;BME280;61999;51.514;14.614;2023-02-23T02:59:12;99773.75;;;-0.28;57.27
15880;BME280;61999;51.514;14.614;2023-02-23T03:01:59;99759.94;;;-0.28;57.34
15880;BME280;61999;51.514;14.614;2023-02-23T03:04:44;99757.59;;;-0.35;57.34
15880;BME280;61999;51.514;14.614;2023-02-23T03:07:36;99756.13;;;-0.42;57.83
15880;BME280;61999;51.514;14.614;2023-02-23T03:10:37;99750.75;;;-0.36;57.41
15880;BME280;61999;51.514;14.614;2023-02-23T03:13:40;99749.16;;;-0.40;57.25
15880;BME280;61999;51.514;14.614;2023-02-23T03:16:36;99757.88;;;-0.42;57.60
15880;BME280;61999;51.514;14.614;2023-02-23T03:19:38;99751.75;;;-0.40;57.96
15880;BME280;61999;51.514;14.614;2023-02-23T03:22:42;99746.97;;;-0.50;57.78
15880;BME280;61999;51.514;14.614;2023-02-23T03:25:44;99756.63;;;-0.54;58.08
15880;BME280;61999;51.514;14.614;2023-02-23T03:28:36;99755.50;;;-0.47;57.86
15880;BME280;61999;51.514;14.614;2023-02-23T03:31:36;99754.81;;;-0.52;57.92
15880;BME280;61999;51.514;14.614;2023-02-23T03:34:33;99756.38;;;-0.48;57.32
15880;BME280;61999;51.514;14.614;2023-02-23T03:37:26;99759.31;;;-0.57;57.92
15880;BME280;61999;51.514;14.614;2023-02-23T03:40:19;99755.69;;;-0.53;57.71
15880;BME280;61999;51.514;14.614;2023-02-23T03:43:12;99753.22;;;-0.56;57.74
15880;BME280;61999;51.514;14.614;2023-02-23T03:46:04;99754.16;;;-0.57;57.48
15880;BME280;61999;51.514;14.614;2023-02-23T03:48:56;99751.84;;;-0.65;58.09
15880;BME280;61999;51.514;14.614;2023-02-23T03:51:50;99753.53;;;-0.64;57.85
15880;BME280;61999;51.514;14.614;2023-02-23T03:54:44;99754.44;;;-0.65;57.63
15880;BME280;61999;51.514;14.614;2023-02-23T03:57:35;99751.13;;;-0.68;57.71
15880;BME280;61999;51.514;14.614;2023-02-23T04:00:29;99745.38;;;-0.77;58.09
15880;BME280;61999;51.514;14.614;2023-02-23T04:03:19;99752.88;;;-0.69;58.09
15880;BME280;61999;51.514;14.614;2023-02-23T04:06:10;99748.38;;;-0.64;57.36
15880;BME280;61999;51.514;14.614;2023-02-23T04:09:02;99734.78;;;-0.70;58.34
15880;BME280;61999;51.514;14.614;2023-02-23T04:11:55;99741.69;;;-0.69;57.82
15880;BME280;61999;51.514;14.614;2023-02-23T04:14:49;99739.00;;;-0.68;58.09
15880;BME280;61999;51.514;14.614;2023-02-23T04:17:20;99743.13;;;-0.62;57.46
15880;BME280;61999;51.514;14.614;2023-02-23T04:19:56;99728.50;;;-0.63;57.82
15880;BME280;61999;51.514;14.614;2023-02-23T04:22:26;99736.94;;;-0.58;57.43
15880;BME280;61999;51.514;14.614;2023-02-23T04:24:56;99732.66;;;-0.59;57.99
15880;BME280;61999;51.514;14.614;2023-02-23T04:27:24;99736.53;;;-0.71;58.20
15880;BME280;61999;51.514;14.614;2023-02-23T04:29:52;99727.69;;;-0.65;57.79
15880;BME280;61999;51.514;14.614;2023-02-23T04:32:21;99727.53;;;-0.61;57.69
15880;BME280;61999;51.514;14.614;2023-02-23T04:34:49;99729.41;;;-0.64;57.65
15880;BME280;61999;51.514;14.614;2023-02-23T04:37:17;99725.78;;;-0.60;57.53
15880;BME280;61999;51.514;14.614;2023-02-23T04:39:45;99727.47;;;-0.59;57.83
15880;BME280;61999;51.514;14.614;2023-02-23T04:42:16;99715.44;;;-0.60;57.75
15880;BME280;61999;51.514;14.614;2023-02-23T04:44:44;99721.34;;;-0.57;57.32
15880;BME280;61999;51.514;14.614;2023-02-23T04:47:14;99730.97;;;-0.60;57.46
15880;BME280;61999;51.514;14.614;2023-02-23T04:49:44;99725.66;;;-0.57;57.57
15880;BME280;61999;51.514;14.614;2023-02-23T04:52:12;99721.34;;;-0.57;57.54
15880;BME280;61999;51.514;14.614;2023-02-23T04:54:40;99725.56;;;-0.54;57.20
15880;BME280;61999;51.514;14.614;2023-02-23T04:57:09;99718.81;;;-0.58;58.02
15880;BME280;61999;51.514;14.614;2023-02-23T04:59:37;99722.16;;;-0.56;57.57
15880;BME280;61999;51.514;14.614;2023-02-23T05:02:05;99709.19;;;-0.55;57.57
15880;BME280;61999;51.514;14.614;2023-02-23T05:04:33;99716.88;;;-0.53;57.59
15880;BME280;61999;51.514;14.614;2023-02-23T05:07:03;99710.72;;;-0.50;57.43
15880;BME280;61999;51.514;14.614;2023-02-23T05:09:32;99706.41;;;-0.50;57.56
15880;BME280;61999;51.514;14.614;2023-02-23T05:12:01;99702.31;;;-0.56;57.52
15880;BME280;61999;51.514;14.614;2023-02-23T05:14:29;99704.84;;;-0.54;57.62
15880;BME280;61999;51.514;14.614;2023-02-23T05:16:58;99702.53;;;-0.62;57.83
15880;BME280;61999;51.514;14.614;2023-02-23T05:19:26;99699.09;;;-0.62;57.83
15880;BME280;61999;51.514;14.614;2023-02-23T05:21:54;99706.03;;;-0.63;57.38
15880;BME280;61999;51.514;14.614;2023-02-23T05:24:23;99703.53;;;-0.64;57.67
15880;BME280;61999;51.514;14.614;2023-02-23T05:26:51;99707.00;;;-0.65;57.32
15880;BME280;61999;51.514;14.614;2023-02-23T05:29:20;99701.81;;;-0.65;57.42
15880;BME280;61999;51.514;14.614;2023-02-23T05:31:48;99700.16;;;-0.66;57.84
15880;BME280;61999;51.514;14.614;2023-02-23T05:34:16;99705.19;;;-0.63;57.70
15880;BME280;61999;51.514;14.614;2023-02-23T05:36:44;99709.69;;;-0.68;58.14
15880;BME280;61999;51.514;14.614;2023-02-23T05:39:12;99711.28;;;-0.64;58.02
15880;BME280;61999;51.514;14.614;2023-02-23T05:45:24;99703.69;;;-0.69;57.94
15880;BME280;61999;51.514;14.614;2023-02-23T05:47:52;99717.34;;;-0.65;58.02
15880;BME280;61999;51.514;14.614;2023-02-23T05:50:20;99709.03;;;-0.73;58.23
15880;BME280;61999;51.514;14.614;2023-02-23T05:52:48;99714.09;;;-0.70;58.48
15880;BME280;61999;51.514;14.614;2023-02-23T05:55:16;99717.34;;;-0.65;58.64
15880;BME280;61999;51.514;14.614;2023-02-23T05:57:44;99712.88;;;-0.62;58.07
15880;BME280;61999;51.514;14.614;2023-02-23T06:00:13;99713.69;;;-0.60;58.55
15880;BME280;61999;51.514;14.614;2023-02-23T06:02:42;99713.63;;;-0.58;58.51
15880;BME280;61999;51.514;14.614;2023-02-23T06:05:11;99715.19;;;-0.54;58.04
15880;BME280;61999;51.514;14.614;2023-02-23T06:07:41;99709.22;;;-0.56;58.04
15880;BME280;61999;51.514;14.614;2023-02-23T06:10:10;99716.16;;;-0.57;58.32
15880;BME280;61999;51.514;14.614;2023-02-23T06:12:38;99720.50;;;-0.57;58.22
15880;BME280;61999;51.514;14.614;2023-02-23T06:15:07;99713.75;;;-0.61;58.56
15880;BME280;61999;51.514;14.614;2023-02-23T06:17:36;99725.78;;;-0.60;58.72
15880;BME280;61999;51.514;14.614;2023-02-23T06:20:06;99727.34;;;-0.56;58.70
15880;BME280;61999;51.514;14.614;2023-02-23T06:22:34;99728.09;;;-0.53;58.38
15880;BME280;61999;51.514;14.614;2023-02-23T06:25:02;99727.00;;;-0.47;58.08
15880;BME280;61999;51.514;14.614;2023-02-23T06:27:31;99733.75;;;-0.43;58.69
15880;BME280;61999;51.514;14.614;2023-02-23T06:29:59;99731.72;;;-0.35;58.46
15880;BME280;61999;51.514;14.614;2023-02-23T06:32:27;99740.16;;;-0.30;58.67
15880;BME280;61999;51.514;14.614;2023-02-23T06:34:55;99738.09;;;-0.21;58.35
15880;BME280;61999;51.514;14.614;2023-02-23T06:37:25;99739.66;;;-0.17;58.04
15880;BME280;61999;51.514;14.614;2023-02-23T06:39:53;99738.69;;;-0.15;58.16
15880;BME280;61999;51.514;14.614;2023-02-23T06:42:21;99748.22;;;-0.15;58.11
15880;BME280;61999;51.514;14.614;2023-02-23T06:44:49;99746.38;;;-0.13;58.33
15880;BME280;61999;51.514;14.614;2023-02-23T06:47:17;99743.63;;;-0.09;57.98
15880;BME280;61999;51.514;14.614;2023-02-23T06:49:45;99747.72;;;-0.03;58.16
15880;BME280;61999;51.514;14.614;2023-02-23T06:52:14;99744.34;;;-0.05;58.40
15880;BME280;61999;51.514;14.614;2023-02-23T06:54:43;99743.25;;;0.01;57.95
15880;BME280;61999;51.514;14.614;2023-02-23T06:57:11;99740.59;;;0.02;58.38
15880;BME280;61999;51.514;14.614;2023-02-23T06:59:39;99745.78;;;0.02;57.85
15880;BME280;61999;51.514;14.614;2023-02-23T07:02:11;99734.47;;;0.05;58.08
15880;BME280;61999;51.514;14.614;2023-02-23T07:04:39;99732.16;;;-0.03;58.57
15880;BME280;61999;51.514;14.614;2023-02-23T07:07:09;99735.28;;;0.05;58.31
15880;BME280;61999;51.514;14.614;2023-02-23T07:09:38;99735.88;;;0.12;58.13
15880;BME280;61999;51.514;14.614;2023-02-23T07:12:10;99734.78;;;0.18;58.59
15880;BME280;61999;51.514;14.614;2023-02-23T07:14:38;99732.97;;;0.20;57.92
15880;BME280;61999;51.514;14.614;2023-02-23T07:17:06;99738.16;;;0.20;58.13
15880;BME280;61999;51.514;14.614;2023-02-23T07:19:36;99737.06;;;0.25;57.91
15880;BME280;61999;51.514;14.614;2023-02-23T07:22:04;99730.13;;;0.26;58.04
15880;BME280;61999;51.514;14.614;2023-02-23T07:24:32;99732.72;;;0.26;58.20
15880;BME280;61999;51.514;14.614;2023-02-23T07:27:00;99731.38;;;0.37;58.19
15880;BME280;61999;51.514;14.614;2023-02-23T07:29:29;99732.75;;;0.46;58.15
15880;BME280;61999;51.514;14.614;2023-02-23T07:31:57;99721.22;;;0.53;58.18
15880;BME280;61999;51.514;14.614;2023-02-23T07:34:26;99726.28;;;0.56;58.22
15880;BME280;61999;51.514;14.614;2023-02-23T07:36:54;99734.69;;;0.62;57.77
15880;BME280;61999;51.514;14.614;2023-02-23T07:39:21;99738.69;;;0.69;58.16
15880;BME280;61999;51.514;14.614;2023-02-23T07:41:49;99740.19;;;0.74;57.84
15880;BME280;61999;51.514;14.614;2023-02-23T07:44:18;99740.75;;;0.81;58.07
15880;BME280;61999;51.514;14.614;2023-02-23T07:46:47;99737.13;;;0.85;57.99
15880;BME280;61999;51.514;14.614;2023-02-23T07:49:16;99738.63;;;0.91;58.33
15880;BME280;61999;51.514;14.614;2023-02-23T07:51:44;99739.16;;;0.97;58.03
15880;BME280;61999;51.514;14.614;2023-02-23T07:54:12;99734.75;;;0.99;57.78
15880;BME280;61999;51.514;14.614;2023-02-23T07:56:40;99738.25;;;0.98;57.57
15880;BME280;61999;51.514;14.614;2023-02-23T07:59:08;99739.53;;;1.09;57.72
15880;BME280;61999;51.514;14.614;2023-02-23T08:01:36;99734.97;;;1.14;57.81
15880;BME280;61999;51.514;14.614;2023-02-23T08:04:05;99734.47;;;1.24;57.93
15880;BME280;61999;51.514;14.614;2023-02-23T08:06:33;99737.56;;;1.33;57.91
15880;BME280;61999;51.514;14.614;2023-02-23T08:09:03;99734.63;;;1.40;57.68
15880;BME280;61999;51.514;14.614;2023-02-23T08:11:32;99740.22;;;1.50;57.76
15880;BME280;61999;51.514;14.614;2023-02-23T08:13:59;99738.09;;;1.58;57.75
15880;BME280;61999;51.514;14.614;2023-02-23T08:16:29;99738.53;;;1.68;57.48
15880;BME280;61999;51.514;14.614;2023-02-23T08:18:59;99740.00;;;1.73;57.53
15880;BME280;61999;51.514;14.614;2023-02-23T08:21:28;99736.41;;;1.76;57.54
15880;BME280;61999;51.514;14.614;2023-02-23T08:23:57;99739.47;;;1.84;57.64
15880;BME280;61999;51.514;14.614;2023-02-23T08:26:25;99730.66;;;1.88;57.45
15880;BME280;61999;51.514;14.614;2023-02-23T08:28:53;99741.38;;;2.00;57.28
15880;BME280;61999;51.514;14.614;2023-02-23T08:31:21;99732.34;;;2.07;57.32
15880;BME280;61999;51.514;14.614;2023-02-23T08:33:52;99738.53;;;2.22;57.11
15880;BME280;61999;51.514;14.614;2023-02-23T08:36:20;99732.81;;;2.32;57.27
15880;BME280;61999;51.514;14.614;2023-02-23T08:38:50;99736.63;;;2.43;56.99
15880;BME280;61999;51.514;14.614;2023-02-23T08:41:20;99729.13;;;2.54;57.19
15880;BME280;61999;51.514;14.614;2023-02-23T08:43:48;99730.31;;;2.64;57.22
15880;BME280;61999;51.514;14.614;2023-02-23T08:46:16;99728.00;;;2.75;57.24
15880;BME280;61999;51.514;14.614;2023-02-23T08:48:46;99727.53;;;2.84;57.00
15880;BME280;61999;51.514;14.614;2023-02-23T08:51:13;99723.84;;;2.89;57.15
15880;BME280;61999;51.514;14.614;2023-02-23T08:53:42;99726.91;;;2.97;56.94
15880;BME280;61999;51.514;14.614;2023-02-23T08:56:11;99716.91;;;3.05;56.81
15880;BME280;61999;51.514;14.614;2023-02-23T08:58:42;99724.72;;;3.21;57.00
15880;BME280;61999;51.514;14.614;2023-02-23T09:01:16;99722.00;;;3.40;56.99
15880;BME280;61999;51.514;14.614;2023-02-23T09:03:45;99722.09;;;3.54;57.13
15880;BME280;61999;51.514;14.614;2023-02-23T09:06:17;99717.69;;;3.70;57.14
15880;BME280;61999;51.514;14.614;2023-02-23T09:08:46;99718.50;;;3.87;57.48
15880;BME280;61999;51.514;14.614;2023-02-23T09:11:15;99717.47;;;4.05;57.44
15880;BME280;61999;51.514;14.614;2023-02-23T09:13:44;99719.94;;;4.23;57.22
15880;BME280;61999;51.514;14.614;2023-02-23T09:16:12;99710.06;;;4.42;57.09
15880;BME280;61999;51.514;14.614;2023-02-23T09:18:40;99715.28;;;4.42;56.39
15880;BME280;61999;51.514;14.614;2023-02-23T09:21:15;99715.66;;;4.80;57.05
15880;BME280;61999;51.514;14.614;2023-02-23T09:23:47;99706.59;;;5.00;56.99
15880;BME280;61999;51.514;14.614;2023-02-23T09:26:18;99708.25;;;5.01;55.42
15880;BME280;61999;51.514;14.614;2023-02-23T09:28:47;99708.59;;;5.24;55.24
15880;BME280;61999;51.514;14.614;2023-02-23T09:31:19;99713.41;;;4.89;53.63
15880;BME280;61999;51.514;14.614;2023-02-23T09:33:49;99711.13;;;4.39;54.12
15880;BME280;61999;51.514;14.614;2023-02-23T09:36:21;99704.63;;;4.90;54.85
15880;BME280;61999;51.514;14.614;2023-02-23T09:38:52;99716.28;;;5.13;54.08
15880;BME280;61999;51.514;14.614;2023-02-23T09:41:57;99714.75;;;5.37;53.78
15880;BME280;61999;51.514;14.614;2023-02-23T09:44:46;99721.72;;;4.81;54.72
15880;BME280;61999;51.514;14.614;2023-02-23T09:47:31;99728.94;;;5.33;52.92
15880;BME280;61999;51.514;14.614;2023-02-23T09:50:16;99723.59;;;5.49;52.63
15880;BME280;61999;51.514;14.614;2023-02-23T09:52:53;99717.47;;;5.77;53.98
15880;BME280;61999;51.514;14.614;2023-02-23T09:55:25;99717.25;;;6.20;53.07
15880;BME280;61999;51.514;14.614;2023-02-23T09:58:02;99722.91;;;5.74;53.06
15880;BME280;61999;51.514;14.614;2023-02-23T10:00:40;99713.41;;;5.03;54.55
15880;BME280;61999;51.514;14.614;2023-02-23T10:03:25;99721.25;;;5.03;54.45
15880;BME280;61999;51.514;14.614;2023-02-23T10:05:59;99717.41;;;5.08;54.71
15880;BME280;61999;51.514;14.614;2023-02-23T10:08:46;99723.09;;;5.71;53.37
15880;BME280;61999;51.514;14.614;2023-02-23T10:11:24;99714.50;;;5.69;52.55
15880;BME280;61999;51.514;14.614;2023-02-23T10:14:18;99715.63;;;5.92;52.79
15880;BME280;61999;51.514;14.614;2023-02-23T10:17:06;99718.75;;;6.88;50.80
15880;BME280;61999;51.514;14.614;2023-02-23T10:19:43;99718.56;;;7.41;48.81
15880;BME280;61999;51.514;14.614;2023-02-23T10:22:18;99719.22;;;6.04;51.26
15880;BME280;61999;51.514;14.614;2023-02-23T10:24:54;99719.53;;;5.72;52.64
15880;BME280;61999;51.514;14.614;2023-02-23T10:27:29;99709.97;;;5.98;52.48
15880;BME280;61999;51.514;14.614;2023-02-23T10:30:03;99714.06;;;6.02;52.43
15880;BME280;61999;51.514;14.614;2023-02-23T10:32:40;99721.28;;;5.30;53.51
15880;BME280;61999;51.514;14.614;2023-02-23T10:35:13;99711.22;;;5.92;52.75
15880;BME280;61999;51.514;14.614;2023-02-23T10:37:41;99713.56;;;5.55;53.04
15880;BME280;61999;51.514;14.614;2023-02-23T10:40:15;99713.44;;;5.30;54.76
15880;BME280;61999;51.514;14.614;2023-02-23T10:42:44;99711.94;;;5.40;53.65
15880;BME280;61999;51.514;14.614;2023-02-23T10:45:16;99710.94;;;5.70;53.63
15880;BME280;61999;51.514;14.614;2023-02-23T10:47:53;99715.41;;;5.95;52.50
15880;BME280;61999;51.514;14.614;2023-02-23T10:50:22;99716.41;;;6.19;51.63
15880;BME280;61999;51.514;14.614;2023-02-23T10:52:58;99709.44;;;5.93;52.61
15880;BME280;61999;51.514;14.614;2023-02-23T10:55:29;99701.91;;;6.79;51.30
15880;BME280;61999;51.514;14.614;2023-02-23T10:58:07;99705.47;;;7.28;50.99
15880;BME280;61999;51.514;14.614;2023-02-23T11:00:39;99703.16;;;6.61;51.46
15880;BME280;61999;51.514;14.614;2023-02-23T11:03:20;99693.06;;;7.67;48.23
15880;BME280;61999;51.514;14.614;2023-02-23T11:05:50;99692.06;;;6.83;48.96
15880;BME280;61999;51.514;14.614;2023-02-23T11:08:26;99690.16;;;6.47;49.97
15880;BME280;61999;51.514;14.614;2023-02-23T11:11:19;99676.94;;;6.61;49.54
15880;BME280;61999;51.514;14.614;2023-02-23T11:13:51;99683.91;;;5.96;52.36
15880;BME280;61999;51.514;14.614;2023-02-23T11:16:23;99675.06;;;6.37;51.52
15880;BME280;61999;51.514;14.614;2023-02-23T11:18:55;99677.06;;;6.47;50.19
15880;BME280;61999;51.514;14.614;2023-02-23T11:21:27;99678.31;;;5.75;52.37
15880;BME280;61999;51.514;14.614;2023-02-23T11:24:12;99668.97;;;6.24;52.08
15880;BME280;61999;51.514;14.614;2023-02-23T11:26:47;99663.13;;;6.59;51.13
15880;BME280;61999;51.514;14.614;2023-02-23T11:29:24;99669.78;;;5.99;51.57
15880;BME280;61999;51.514;14.614;2023-02-23T11:31:57;99666.47;;;5.70;52.73
15880;BME280;61999;51.514;14.614;2023-02-23T11:34:32;99657.66;;;6.11;52.61
15880;BME280;61999;51.514;14.614;2023-02-23T11:37:05;99655.13;;;6.73;50.80
15880;BME280;61999;51.514;14.614;2023-02-23T11:39:34;99650.97;;;6.58;51.52
15880;BME280;61999;51.514;14.614;2023-02-23T11:42:15;99655.47;;;6.30;52.49
15880;BME280;61999;51.514;14.614;2023-02-23T11:44:50;99646.59;;;6.46;50.89
15880;BME280;61999;51.514;14.614;2023-02-23T11:47:22;99652.41;;;6.62;50.94
15880;BME280;61999;51.514;14.614;2023-02-23T11:49:52;99656.00;;;6.61;50.51
15880;BME280;61999;51.514;14.614;2023-02-23T11:52:23;99642.00;;;7.36;49.10
15880;BME280;61999;51.514;14.614;2023-02-23T11:54:57;99640.22;;;7.60;48.48
15880;BME280;61999;51.514;14.614;2023-02-23T11:57:29;99637.22;;;7.17;49.05
15880;BME280;61999;51.514;14.614;2023-02-23T12:00:04;99639.59;;;6.96;49.39
15880;BME280;61999;51.514;14.614;2023-02-23T12:02:48;99634.44;;;8.14;47.43
15880;BME280;61999;51.514;14.614;2023-02-23T12:05:22;99628.84;;;8.30;46.42
15880;BME280;61999;51.514;14.614;2023-02-23T12:08:00;99620.38;;;8.72;46.29
15880;BME280;61999;51.514;14.614;2023-02-23T12:10:36;99624.75;;;9.48;44.28
15880;BME280;61999;51.514;14.614;2023-02-23T12:13:23;99617.66;;;10.23;41.96
15880;BME280;61999;51.514;14.614;2023-02-23T12:15:59;99620.66;;;9.67;43.15
15880;BME280;61999;51.514;14.614;2023-02-23T12:18:44;99617.53;;;9.62;42.47
15880;BME280;61999;51.514;14.614;2023-02-23T12:21:29;99614.69;;;10.37;41.33
15880;BME280;61999;51.514;14.614;2023-02-23T12:24:12;99609.59;;;10.45;40.94
15880;BME280;61999;51.514;14.614;2023-02-23T12:26:48;99616.03;;;9.48;42.28
15880;BME280;61999;51.514;14.614;2023-02-23T12:29:28;99624.84;;;9.26;43.37
15880;BME280;61999;51.514;14.614;2023-02-23T12:32:01;99625.50;;;8.51;45.18
15880;BME280;61999;51.514;14.614;2023-02-23T12:34:40;99615.81;;;8.96;44.63
15880;BME280;61999;51.514;14.614;2023-02-23T12:37:28;99618.38;;;9.30;43.90
15880;BME280;61999;51.514;14.614;2023-02-23T12:40:13;99616.78;;;8.73;44.93
15880;BME280;61999;51.514;14.614;2023-02-23T12:42:53;99608.59;;;9.21;44.27
15880;BME280;61999;51.514;14.614;2023-02-23T12:45:32;99602.91;;;10.11;41.90
15880;BME280;61999;51.514;14.614;2023-02-23T12:48:13;99597.69;;;8.82;44.53
15880;BME280;61999;51.514;14.614;2023-02-23T12:50:54;99601.38;;;9.23;44.56
15880;BME280;61999;51.514;14.614;2023-02-23T12:53:37;99598.31;;;10.55;42.90
15880;BME280;61999;51.514;14.614;2023-02-23T12:56:23;99593.56;;;10.99;41.36
15880;BME280;61999;51.514;14.614;2023-02-23T12:59:15;99598.38;;;11.44;40.11
15880;BME280;61999;51.514;14.614;2023-02-23T13:01:54;99606.31;;;9.48;43.34
15880;BME280;61999;51.514;14.614;2023-02-23T13:04:42;99597.19;;;8.65;44.99
15880;BME280;61999;51.514;14.614;2023-02-23T13:07:20;99598.63;;;8.92;45.14
15880;BME280;61999;51.514;14.614;2023-02-23T13:10:02;99597.06;;;9.33;43.97
15880;BME280;61999;51.514;14.614;2023-02-23T13:12:49;99597.19;;;8.88;44.18
15880;BME280;61999;51.514;14.614;2023-02-23T13:15:30;99591.97;;;8.32;45.39
15880;BME280;61999;51.514;14.614;2023-02-23T13:18:11;99587.66;;;7.38;48.08
15880;BME280;61999;51.514;14.614;2023-02-23T13:20:46;99589.50;;;7.24;49.58
15880;BME280;61999;51.514;14.614;2023-02-23T13:23:31;99590.84;;;8.00;46.91
15880;BME280;61999;51.514;14.614;2023-02-23T13:26:10;99584.25;;;7.48;48.74
15880;BME280;61999;51.514;14.614;2023-02-23T13:28:52;99579.56;;;7.41;49.02
15880;BME280;61999;51.514;14.614;2023-02-23T13:31:33;99585.53;;;7.19;49.11
15880;BME280;61999;51.514;14.614;2023-02-23T13:34:08;99583.97;;;7.16;49.94
15880;BME280;61999;51.514;14.614;2023-02-23T13:36:38;99572.69;;;6.79;50.93
15880;BME280;61999;51.514;14.614;2023-02-23T13:39:39;99571.69;;;7.41;50.00
15880;BME280;61999;51.514;14.614;2023-02-23T13:42:41;99576.09;;;7.40;49.53
15880;BME280;61999;51.514;14.614;2023-02-23T13:45:42;99570.56;;;8.36;47.70
15880;BME280;61999;51.514;14.614;2023-02-23T13:48:28;99576.66;;;7.32;49.16
15880;BME280;61999;51.514;14.614;2023-02-23T13:51:02;99573.09;;;8.49;47.63
15880;BME280;61999;51.514;14.614;2023-02-23T13:53:39;99582.13;;;7.89;47.27